Time;durP1;ratioP1;P1;durP2;ratioP2;P2;SDS_P1;SDS_P2;PMS_P1;PMS_P2;Temp;Humidity;BMP_temperature;BMP_pressure;BME280_temperature;BME280_humidity;BME280_pressure;Samples;Min_cycle;Max_cycle;Signal;HPM_P1;HPM_P2
2023/01/25 00:02:39;;;;;;;40.67;20.58;;;;;;;2.74;79.97;99580.66;10636823;27;20062;-76
2023/01/25 00:08:00;;;;;;;41.58;17.70;;;;;;;2.76;79.89;99580.91;10608577;27;20054;-76
2023/01/25 00:13:22;;;;;;;42.58;19.45;;;;;;;2.76;79.83;99583.69;10636880;27;20096;-76
2023/01/25 00:18:42;;;;;;;40.13;17.02;;;;;;;2.71;80.05;99581.69;10622628;27;20047;-76
2023/01/25 00:24:04;;;;;;;38.05;18.83;;;;;;;2.66;80.18;99585.16;10622424;27;20035;-76
2023/01/25 00:29:25;;;;;;;39.55;21.05;;;;;;;2.74;79.56;99580.66;10622442;27;20106;-76
2023/01/25 00:34:47;;;;;;;39.47;17.77;;;;;;;2.77;79.88;99576.91;10659374;27;20105;-76
2023/01/25 00:40:09;;;;;;;39.30;17.65;;;;;;;2.73;79.72;99563.38;10644998;27;20477;-76
2023/01/25 00:45:31;;;;;;;38.38;17.75;;;;;;;2.70;80.06;99569.13;10616306;27;20043;-76
2023/01/25 00:50:52;;;;;;;42.17;19.23;;;;;;;2.69;79.74;99573.13;10644535;27;20437;-76
2023/01/25 00:56:14;;;;;;;41.17;21.20;;;;;;;2.64;79.63;99560.09;10630176;27;20039;-76
2023/01/25 01:01:35;;;;;;;39.80;19.48;;;;;;;2.71;80.35;99556.84;10629657;27;20043;-76
2023/01/25 01:06:56;;;;;;;39.13;18.25;;;;;;;2.69;79.85;99568.34;10629284;27;20400;-76
2023/01/25 01:12:16;;;;;;;42.67;21.58;;;;;;;2.67;79.92;99561.84;10614513;27;20084;-76
2023/01/25 01:17:37;;;;;;;41.05;20.50;;;;;;;2.71;79.82;99565.88;10640524;27;20531;-76
2023/01/25 01:22:59;;;;;;;44.10;20.42;;;;;;;2.75;80.13;99571.16;10656829;27;20047;-76
2023/01/25 01:28:20;;;;;;;43.45;21.73;;;;;;;2.78;79.67;99565.38;10614099;27;20042;-76
2023/01/25 01:33:42;;;;;;;44.30;21.77;;;;;;;2.77;79.79;99566.63;10667946;27;20468;-76
2023/01/25 01:39:03;;;;;;;45.50;21.95;;;;;;;2.79;79.80;99566.88;10610248;27;20042;-76
2023/01/25 01:44:44;;;;;;;40.53;20.45;;;;;;;2.80;79.80;99567.66;10638163;27;20123;-76
2023/01/25 01:50:16;;;;;;;41.80;21.27;;;;;;;2.80;79.79;99559.38;10627586;27;20042;-76
2023/01/25 01:55:37;;;;;;;43.38;20.23;;;;;;;2.79;80.12;99549.59;10627802;27;20053;-76
2023/01/25 02:00:58;;;;;;;43.65;20.50;;;;;;;2.81;79.78;99547.84;10612877;27;20074;-76
2023/01/25 02:06:35;;;;;;;44.63;21.00;;;;;;;2.80;80.30;99562.91;10612932;27;20373;-76
2023/01/25 02:11:56;;;;;;;39.15;16.80;;;;;;;2.76;80.09;99550.59;10626727;27;20058;-76
2023/01/25 02:17:28;;;;;;;36.75;16.85;;;;;;;2.78;79.79;99548.06;10626478;27;20039;-76
2023/01/25 02:23:05;;;;;;;41.25;18.60;;;;;;;2.80;80.37;99545.59;10640718;27;20042;-76
2023/01/25 02:28:37;;;;;;;44.28;18.70;;;;;;;2.79;80.23;99541.31;10627141;27;20400;-76
2023/01/25 02:33:58;;;;;;;41.10;19.60;;;;;;;2.80;79.96;99546.34;10611783;27;20046;-76
2023/01/25 02:39:19;;;;;;;44.63;18.30;;;;;;;2.83;80.29;99539.06;10625707;27;20046;-76
2023/01/25 02:44:42;;;;;;;40.53;18.00;;;;;;;2.80;80.29;99537.31;10612271;27;20392;-76
2023/01/25 02:50:03;;;;;;;46.70;19.42;;;;;;;2.80;80.11;99526.28;10625107;27;20091;-76
2023/01/25 02:55:25;;;;;;;43.35;20.58;;;;;;;2.79;79.83;99522.00;10639453;27;20038;-76
2023/01/25 03:00:46;;;;;;;43.58;18.73;;;;;;;2.79;79.54;99510.97;10624559;27;20050;-76
2023/01/25 03:06:07;;;;;;;48.28;19.02;;;;;;;2.82;79.75;99507.22;10610606;27;20034;-76
2023/01/25 03:11:28;;;;;;;43.88;20.70;;;;;;;2.83;79.81;99509.50;10624365;27;20491;-76
2023/01/25 03:16:51;;;;;;;41.25;20.60;;;;;;;2.81;79.92;99489.19;10611007;27;20042;-76
2023/01/25 03:22:15;;;;;;;;;;;;;;;2.82;80.47;99476.91;10611887;27;20095;-76
2023/01/25 03:27:36;;;;;;;39.45;17.52;;;;;;;2.82;80.02;99487.94;10652493;27;20363;-77
2023/01/25 03:33:03;;;;;;;39.95;18.15;;;;;;;2.84;79.94;99477.88;10611500;27;20039;-76
2023/01/25 03:38:25;;;;;;;42.58;18.67;;;;;;;2.85;80.22;99464.84;10623862;27;20039;-76
2023/01/25 03:43:46;;;;;;;42.80;18.88;;;;;;;2.86;80.27;99466.34;10623217;27;20445;-76
2023/01/25 03:49:10;;;;;;;41.53;17.50;;;;;;;2.86;80.12;99460.84;10638370;27;20105;-76
2023/01/25 03:54:31;;;;;;;39.05;18.42;;;;;;;2.86;79.96;99460.84;10609088;27;20042;-76
2023/01/25 03:59:52;;;;;;;43.50;19.15;;;;;;;2.88;79.67;99453.56;10609185;27;20046;-76
2023/01/25 04:05:14;;;;;;;37.55;17.38;;;;;;;2.84;79.78;99453.06;10622219;27;20503;-76
2023/01/25 04:10:35;;;;;;;44.47;20.80;;;;;;;2.79;79.80;99445.53;10608583;27;20392;-76
2023/01/25 04:15:57;;;;;;;41.92;21.58;;;;;;;2.79;80.00;99433.75;10609007;27;20578;-76
2023/01/25 04:21:41;;;;;;;40.63;19.65;;;;;;;2.79;79.96;99437.25;10632082;27;20038;-76
2023/01/25 04:27:02;;;;;;;41.47;20.65;;;;;;;2.80;80.12;99446.31;10608378;27;20369;-76
2023/01/25 04:32:27;;;;;;;38.42;20.13;;;;;;;2.78;80.26;99441.28;10623266;27;20042;-76
2023/01/25 04:37:56;;;;;;;43.92;20.77;;;;;;;2.76;80.16;99430.00;10622489;27;20050;-76
2023/01/25 04:43:21;;;;;;;41.42;21.13;;;;;;;2.77;80.37;99430.75;10637507;27;20557;-76
2023/01/25 04:48:47;;;;;;;40.15;19.52;;;;;;;2.77;80.26;99425.97;10604641;27;20043;-76
2023/01/25 04:54:09;;;;;;;39.70;19.92;;;;;;;2.74;80.21;99432.50;10600842;27;20039;-76
2023/01/25 04:59:31;;;;;;;38.65;19.50;;;;;;;2.76;80.27;99424.47;10616756;27;20031;-76
2023/01/25 05:04:52;;;;;;;40.22;19.50;;;;;;;2.74;80.23;99423.47;10603138;28;20610;-76
2023/01/25 05:10:14;;;;;;;39.85;19.42;;;;;;;2.71;80.60;99418.97;10564392;28;20473;-76
2023/01/25 05:15:55;;;;;;;44.47;20.50;;;;;;;2.72;80.53;99417.72;10583522;27;20050;-76
2023/01/25 05:26:59;;;;;;;38.97;19.85;;;;;;;2.62;80.61;99419.97;10591379;27;20046;-76
2023/01/25 05:32:28;;;;;;;41.20;20.30;;;;;;;2.65;79.88;99418.22;10603988;27;20068;-77
2023/01/25 05:37:57;;;;;;;39.13;20.13;;;;;;;2.57;80.42;99421.47;10642529;27;20042;-76
2023/01/25 05:43:19;;;;;;;39.47;19.70;;;;;;;2.54;80.27;99414.19;10628828;27;20488;-76
2023/01/25 05:48:40;;;;;;;40.13;19.65;;;;;;;2.53;80.52;99418.22;10641898;27;20054;-76
2023/01/25 05:54:04;;;;;;;35.97;19.05;;;;;;;2.59;80.33;99424.47;10599174;27;20476;-75
2023/01/25 05:59:25;;;;;;;34.50;18.50;;;;;;;2.65;80.55;99423.72;10585093;27;20043;-76
2023/01/25 06:04:48;;;;;;;38.05;19.33;;;;;;;2.60;80.18;99416.94;10584653;27;20046;-76
2023/01/25 06:10:09;;;;;;;37.88;18.08;;;;;;;2.58;80.24;99420.19;10584327;27;20396;-76
2023/01/25 06:15:30;;;;;;;37.25;18.63;;;;;;;2.61;80.65;99420.47;10612713;27;20100;-76
2023/01/25 06:21:12;;;;;;;40.65;19.30;;;;;;;2.56;80.44;99427.47;10593275;27;20047;-76
2023/01/25 06:26:33;;;;;;;38.05;19.75;;;;;;;2.61;80.26;99423.22;10595672;27;20488;-76
2023/01/25 06:31:54;;;;;;;38.70;19.30;;;;;;;2.63;80.28;99415.22;10625749;27;20039;-76
2023/01/25 06:37:15;;;;;;;37.30;19.50;;;;;;;2.58;80.38;99406.41;10626321;27;20043;-76
2023/01/25 06:42:36;;;;;;;37.83;20.20;;;;;;;2.59;80.34;99405.16;10626486;27;20042;-76
2023/01/25 06:47:57;;;;;;;38.42;20.50;;;;;;;2.59;80.63;99390.63;10624466;27;20400;-77
2023/01/25 06:53:18;;;;;;;39.92;19.52;;;;;;;2.68;80.70;99389.63;10625070;27;20043;-76
2023/01/25 06:58:39;;;;;;;40.72;19.58;;;;;;;2.64;80.38;99397.41;10625647;27;20050;-77
2023/01/25 07:04:00;;;;;;;42.35;20.33;;;;;;;2.64;80.47;99400.16;10625596;27;20411;-77
2023/01/25 07:09:23;;;;;;;39.15;20.98;;;;;;;2.65;80.08;99396.91;10625153;27;20053;-77
2023/01/25 07:14:46;;;;;;;43.45;20.58;;;;;;;2.66;80.39;99397.66;10639082;27;20038;-77
2023/01/25 07:20:07;;;;;;;37.97;19.65;;;;;;;2.70;80.31;99403.66;10624920;27;20042;-77
2023/01/25 07:25:28;;;;;;;36.20;19.23;;;;;;;2.73;80.32;99397.16;10623663;27;20468;-76
2023/01/25 07:30:49;;;;;;;36.45;19.45;;;;;;;2.73;80.04;99402.69;10624423;27;20038;-77
2023/01/25 07:36:10;;;;;;;44.42;20.25;;;;;;;2.76;80.52;99396.16;10638423;27;20039;-77
2023/01/25 07:41:32;;;;;;;38.30;18.92;;;;;;;2.78;80.45;99391.63;10637542;27;20057;-77
2023/01/25 07:46:54;;;;;;;38.58;18.88;;;;;;;2.79;80.44;99386.88;10624276;27;20529;-76
2023/01/25 07:52:15;;;;;;;35.00;17.60;;;;;;;2.85;80.35;99379.34;10637732;27;20143;-77
2023/01/25 07:57:36;;;;;;;34.75;18.88;;;;;;;2.88;80.79;99383.84;10609343;27;20051;-77
2023/01/25 08:02:56;;;;;;;35.60;18.35;;;;;;;2.86;79.92;99384.34;10623178;27;20087;-77
2023/01/25 08:08:17;;;;;;;38.05;18.60;;;;;;;2.90;80.67;99384.13;10623534;27;20488;-77
2023/01/25 08:13:39;;;;;;;33.75;18.52;;;;;;;2.89;80.07;99385.34;10637583;27;20043;-77
2023/01/25 08:19:01;;;;;;;35.63;18.88;;;;;;;2.96;80.35;99370.31;10651717;27;20039;-77
2023/01/25 08:24:23;;;;;;;33.65;17.02;;;;;;;3.00;79.94;99371.56;10623848;27;20042;-77
2023/01/25 08:29:45;;;;;;;32.60;16.50;;;;;;;2.98;79.72;99360.25;10636970;27;20404;-77
2023/01/25 08:35:07;;;;;;;33.95;17.08;;;;;;;3.04;80.11;99361.00;10637234;27;20042;-77
2023/01/25 08:40:28;;;;;;;29.90;16.67;;;;;;;3.08;80.28;99355.97;10622712;27;20051;-77
2023/01/25 08:45:55;;;;;;;34.03;17.60;;;;;;;3.10;79.30;99345.22;10622659;27;20066;-77
2023/01/25 08:51:16;;;;;;;32.30;16.92;;;;;;;3.10;79.86;99347.22;10623711;27;20091;-77
2023/01/25 08:56:40;;;;;;;33.25;16.20;;;;;;;3.15;79.73;99357.47;10630730;27;20039;-77
2023/01/25 09:02:02;;;;;;;29.42;16.38;;;;;;;3.09;79.84;99340.94;10644925;27;20355;-77
2023/01/25 09:07:23;;;;;;;30.65;16.10;;;;;;;3.08;79.41;99331.16;10630276;27;20046;-77
2023/01/25 09:12:44;;;;;;;28.83;16.00;;;;;;;3.14;80.02;99326.38;10644106;27;20039;-77
2023/01/25 09:18:05;;;;;;;28.75;15.75;;;;;;;3.13;79.31;99324.88;10629700;27;20039;-77
2023/01/25 09:23:26;;;;;;;22.55;13.13;;;;;;;3.05;79.17;99315.63;10629488;27;20166;-77
2023/01/25 09:28:50;;;;;;;28.50;14.32;;;;;;;3.00;79.21;99313.63;10628896;27;20582;-77
2023/01/25 09:34:12;;;;;;;30.42;17.08;;;;;;;2.97;78.74;99320.16;10629114;27;20054;-77
2023/01/25 09:39:33;;;;;;;26.55;15.48;;;;;;;2.97;79.20;99319.41;10629015;27;20057;-77
2023/01/25 09:45:00;;;;;;;28.35;16.30;;;;;;;2.99;79.10;99314.91;10642807;27;20050;-76
2023/01/25 09:50:59;;;;;;;26.73;15.45;;;;;;;3.05;79.07;99310.09;10642548;27;20103;-75
2023/01/25 09:56:23;;;;;;;26.38;15.30;;;;;;;3.05;79.85;99306.59;10532795;27;20058;-76
2023/01/25 10:01:56;;;;;;;33.25;17.35;;;;;;;3.07;79.38;99304.81;10656822;27;20361;-75
2023/01/25 10:07:55;;;;;;;31.75;16.95;;;;;;;3.20;79.81;99298.03;10652487;27;20042;-77
2023/01/25 10:13:18;;;;;;;28.33;16.48;;;;;;;3.19;78.98;99282.72;10670470;27;20389;-77
2023/01/25 10:18:48;;;;;;;30.90;17.75;;;;;;;3.24;79.19;99281.94;10625906;27;20382;-76
2023/01/25 10:24:09;;;;;;;29.45;17.30;;;;;;;3.29;79.31;99281.19;10654953;27;20043;-76
2023/01/25 10:29:31;;;;;;;33.20;17.50;;;;;;;3.26;78.86;99269.13;10654739;27;20053;-76
2023/01/25 10:34:53;;;;;;;29.30;15.63;;;;;;;3.31;78.98;99260.09;10640871;27;20498;-76
2023/01/25 10:40:23;;;;;;;26.15;16.05;;;;;;;3.32;78.26;99255.31;10615931;27;20050;-77
2023/01/25 10:45:45;;;;;;;29.75;17.45;;;;;;;3.29;78.53;99259.84;10591757;27;20440;-77
2023/01/25 10:51:06;;;;;;;32.40;16.88;;;;;;;3.35;78.59;99257.06;10610277;27;20092;-76
2023/01/25 10:56:27;;;;;;;31.77;16.85;;;;;;;3.39;79.04;99252.03;10565612;27;20035;-76
2023/01/25 11:01:49;;;;;;;26.38;15.63;;;;;;;3.31;76.94;99243.53;10596584;27;20047;-76
2023/01/25 11:07:25;;;;;;;25.08;14.80;;;;;;;3.12;77.05;99232.31;10565111;27;20039;-76
2023/01/25 11:12:46;;;;;;;30.20;15.43;;;;;;;3.15;77.63;99227.78;10580329;27;20038;-77
2023/01/25 11:18:12;;;;;;;22.30;13.20;;;;;;;3.22;77.26;99226.50;10609278;27;20043;-75
2023/01/25 11:23:33;;;;;;;21.85;12.82;;;;;;;3.27;77.57;99211.91;10607228;27;20039;-77
2023/01/25 11:29:19;;;;;;;24.05;14.35;;;;;;;3.31;77.17;99209.66;10578920;27;20039;-77
2023/01/25 11:34:40;;;;;;;24.98;13.90;;;;;;;3.32;77.91;99200.13;10607504;27;20035;-77
2023/01/25 11:40:31;;;;;;;26.10;13.88;;;;;;;3.30;77.61;99194.38;10579814;27;20491;-77
2023/01/25 11:46:01;;;;;;;24.20;12.85;;;;;;;3.36;77.17;99187.53;10575906;27;20058;-77
2023/01/25 11:51:31;;;;;;;22.88;13.73;;;;;;;3.32;77.35;99175.28;10595506;27;20067;-77
2023/01/25 11:56:57;;;;;;;23.50;13.38;;;;;;;3.34;76.67;99158.94;10553042;28;20116;-76
2023/01/25 12:02:43;;;;;;;26.27;14.38;;;;;;;3.35;76.94;99152.16;10589884;27;20039;-77
2023/01/25 12:08:17;;;;;;;25.85;14.25;;;;;;;3.38;77.60;99138.09;10611698;28;20047;-76
2023/01/25 12:14:00;;;;;;;25.27;15.02;;;;;;;3.37;77.04;99124.78;10608709;28;20473;-76
2023/01/25 12:19:43;;;;;;;29.52;16.08;;;;;;;3.37;76.90;99097.94;10624080;28;20039;-75
2023/01/25 12:25:22;;;;;;;27.23;13.57;;;;;;;3.41;77.56;99092.91;10597147;28;20035;-76
2023/01/25 12:30:51;;;;;;;24.65;12.50;;;;;;;3.32;76.36;99084.19;10602951;27;20066;-76
2023/01/25 12:36:33;;;;;;;24.35;13.05;;;;;;;3.37;76.18;99061.31;10602812;27;20043;-76
2023/01/25 12:42:06;;;;;;;23.23;12.63;;;;;;;3.41;76.76;99051.50;10602915;27;20055;-75
2023/01/25 12:48:12;;;;;;;21.50;11.88;;;;;;;3.50;76.25;99044.16;10589616;27;20039;-75
2023/01/25 12:53:37;;;;;;;22.85;12.38;;;;;;;3.54;76.52;99039.09;10597237;27;20047;-76
2023/01/25 12:59:20;;;;;;;22.08;13.40;;;;;;;3.40;75.45;99035.44;10595943;27;20050;-76
2023/01/25 13:05:06;;;;;;;21.42;13.40;;;;;;;3.37;76.21;99017.16;10595184;27;20043;-77
2023/01/25 13:10:37;;;;;;;23.30;13.68;;;;;;;3.31;75.50;99008.19;10631224;27;20059;-76
2023/01/25 13:16:19;;;;;;;22.63;13.93;;;;;;;3.25;75.38;99004.72;10601669;27;20035;-76
2023/01/25 13:21:46;;;;;;;25.65;15.00;;;;;;;3.26;75.58;98995.91;10615959;27;20046;-75
2023/01/25 13:27:23;;;;;;;22.75;12.10;;;;;;;3.37;75.42;99006.09;10588016;27;20035;-76
2023/01/25 13:32:48;;;;;;;21.77;11.88;;;;;;;3.37;75.57;98979.25;10572349;27;20039;-77
2023/01/25 13:38:23;;;;;;;19.33;11.57;;;;;;;3.34;75.87;98985.06;10612586;27;20043;-75
2023/01/25 13:43:46;;;;;;;20.85;12.75;;;;;;;3.39;76.27;98976.00;10613460;27;20043;-75
2023/01/25 13:49:16;;;;;;;23.52;13.70;;;;;;;3.38;76.15;98968.97;10598040;27;20046;-75
2023/01/25 13:54:44;;;;;;;24.15;13.20;;;;;;;3.33;75.82;98962.25;10584628;27;20039;-76
2023/01/25 14:00:10;;;;;;;23.20;13.27;;;;;;;3.31;75.58;98958.50;10581740;27;20036;-75
2023/01/25 14:05:31;;;;;;;21.25;12.75;;;;;;;3.16;74.98;98964.41;10581707;27;20389;-76
2023/01/25 14:10:51;;;;;;;20.88;13.05;;;;;;;3.16;75.11;98964.41;10597886;27;20066;-76
2023/01/25 14:16:12;;;;;;;25.65;13.70;;;;;;;3.15;76.04;98955.38;10583418;27;20039;-77
2023/01/25 14:21:33;;;;;;;22.10;14.63;;;;;;;3.14;75.96;98953.88;10572133;27;20039;-76
2023/01/25 14:26:54;;;;;;;22.65;14.43;;;;;;;3.18;75.45;98945.31;10580553;27;20093;-76
2023/01/25 14:32:19;;;;;;;25.33;13.85;;;;;;;3.16;75.39;98948.59;10583045;27;20473;-76
2023/01/25 14:37:43;;;;;;;22.38;13.73;;;;;;;2.98;74.98;98937.47;10582112;27;20062;-76
2023/01/25 14:43:04;;;;;;;23.95;14.23;;;;;;;2.96;74.90;98937.97;10581136;27;20043;-76
2023/01/25 14:48:39;;;;;;;22.08;13.65;;;;;;;2.95;74.84;98938.50;10581211;27;20042;-76
2023/01/25 14:54:03;;;;;;;20.23;12.85;;;;;;;2.99;75.97;98941.72;10583154;27;20047;-76
2023/01/25 14:59:43;;;;;;;22.80;13.45;;;;;;;3.04;75.65;98935.41;10596911;27;20396;-77
2023/01/25 15:05:06;;;;;;;26.60;15.05;;;;;;;3.03;75.19;98925.66;10596811;27;20065;-75
2023/01/25 15:10:36;;;;;;;27.23;15.18;;;;;;;2.93;75.50;98919.72;10586175;27;20050;-75
2023/01/25 15:16:01;;;;;;;28.92;14.27;;;;;;;2.80;75.04;98903.03;10568254;27;20043;-75
2023/01/25 15:21:31;;;;;;;22.35;12.93;;;;;;;2.74;75.17;98907.84;10596232;27;20057;-76
2023/01/25 15:26:53;;;;;;;22.95;12.63;;;;;;;2.79;75.84;98898.75;10610239;27;20054;-75
2023/01/25 15:32:19;;;;;;;23.45;13.45;;;;;;;2.79;75.74;98879.44;10610123;27;20039;-75
2023/01/25 15:37:41;;;;;;;22.85;12.25;;;;;;;2.78;75.36;98886.97;10582035;27;20172;-75
2023/01/25 15:43:02;;;;;;;20.80;12.85;;;;;;;2.82;75.36;98886.72;10581499;27;20062;-75
2023/01/25 15:48:34;;;;;;;24.65;13.65;;;;;;;2.71;75.19;98882.03;10580856;27;20062;-75
2023/01/25 15:53:56;;;;;;;22.00;12.38;;;;;;;2.68;75.56;98876.78;10567199;27;20035;-76
2023/01/25 15:59:18;;;;;;;23.67;11.82;;;;;;;2.54;74.93;98879.41;10580796;27;20039;-76
2023/01/25 16:04:39;;;;;;;22.23;12.50;;;;;;;2.59;75.42;98859.31;10579932;27;20047;-75
2023/01/25 16:10:00;;;;;;;23.80;12.50;;;;;;;2.57;75.31;98853.56;10594944;27;20043;-76
2023/01/25 16:15:21;;;;;;;25.27;14.60;;;;;;;2.53;75.52;98839.34;10580837;27;20040;-76
2023/01/25 16:20:42;;;;;;;22.88;13.65;;;;;;;2.49;75.25;98827.81;10566432;27;20043;-76
2023/01/25 16:26:03;;;;;;;25.35;13.98;;;;;;;2.53;75.84;98828.31;10566775;28;20122;-76
2023/01/25 16:31:25;;;;;;;28.95;16.25;;;;;;;2.49;75.88;98827.06;10577357;27;20035;-75
2023/01/25 16:36:52;;;;;;;25.13;14.13;;;;;;;2.46;75.72;98820.59;10595144;28;20092;-76
2023/01/25 16:42:14;;;;;;;26.70;14.23;;;;;;;2.42;76.21;98822.91;10580185;27;20052;-76
2023/01/25 16:47:35;;;;;;;25.33;14.40;;;;;;;2.41;75.88;98807.59;10594200;28;20039;-76
2023/01/25 16:52:57;;;;;;;29.58;16.40;;;;;;;2.38;75.64;98805.88;10579821;28;20039;-76
2023/01/25 16:58:18;;;;;;;29.00;14.52;;;;;;;2.18;77.05;98811.78;10594259;28;20042;-77
2023/01/25 17:03:39;;;;;;;28.38;14.65;;;;;;;2.18;76.55;98798.03;10579501;28;20050;-77
2023/01/25 17:09:02;;;;;;;28.38;14.55;;;;;;;2.16;77.11;98797.78;10579609;28;20477;-77
2023/01/25 17:14:40;;;;;;;28.45;16.23;;;;;;;2.18;76.92;98790.50;10588222;27;20043;-77
2023/01/25 17:20:01;;;;;;;31.98;17.48;;;;;;;2.17;77.28;98785.50;10587592;27;20039;-76
2023/01/25 17:25:22;;;;;;;30.52;16.15;;;;;;;2.17;76.97;98777.25;10601268;27;20454;-75
2023/01/25 17:30:43;;;;;;;27.08;15.55;;;;;;;2.18;76.77;98770.47;10587083;27;20051;-77
2023/01/25 17:36:05;;;;;;;33.75;18.08;;;;;;;2.28;76.64;98761.38;10586452;27;20481;-76
2023/01/25 17:41:26;;;;;;;29.98;15.60;;;;;;;2.27;77.08;98757.13;10577338;27;20107;-76
2023/01/25 17:46:47;;;;;;;30.45;16.55;;;;;;;2.19;76.76;98753.44;10600275;27;20035;-76
2023/01/25 17:52:08;;;;;;;30.13;16.80;;;;;;;2.19;76.91;98747.91;10585848;27;20393;-77
2023/01/25 17:57:30;;;;;;;30.80;16.88;;;;;;;2.29;77.03;98742.81;10585675;27;20469;-76
2023/01/25 18:02:52;;;;;;;31.90;17.45;;;;;;;2.30;77.41;98728.53;10578485;27;20043;-77
2023/01/25 18:08:13;;;;;;;30.58;15.30;;;;;;;2.12;77.13;98720.19;10566778;27;20507;-77
2023/01/25 18:13:43;;;;;;;35.20;18.75;;;;;;;2.07;77.08;98715.47;10598900;27;20046;-75
2023/01/25 18:19:06;;;;;;;30.60;16.13;;;;;;;2.16;77.09;98709.63;10599934;27;20480;-77
2023/01/25 18:24:34;;;;;;;37.80;18.75;;;;;;;2.17;77.27;98711.13;10555706;28;20193;-76
2023/01/25 18:30:38;;;;;;;32.72;18.88;;;;;;;2.24;77.42;98705.06;10556218;28;20035;-77
2023/01/25 18:35:59;;;;;;;36.00;18.90;;;;;;;2.21;77.46;98687.53;10558758;28;20101;-77
2023/01/25 18:41:22;;;;;;;29.38;15.40;;;;;;;2.32;77.26;98692.22;10556358;28;20055;-77
2023/01/25 18:46:45;;;;;;;31.90;15.15;;;;;;;2.30;77.21;98678.94;10555339;28;20047;-77
2023/01/25 18:52:07;;;;;;;30.30;14.90;;;;;;;2.26;77.32;98672.97;10554924;28;20042;-77
2023/01/25 18:57:31;;;;;;;27.73;13.68;;;;;;;2.34;76.96;98666.91;10570453;27;20043;-78
2023/01/25 19:02:53;;;;;;;33.20;16.88;;;;;;;2.28;77.22;98656.66;10569169;27;20070;-77
2023/01/25 19:08:14;;;;;;;35.75;19.10;;;;;;;2.22;77.33;98644.22;10582666;27;20039;-78
2023/01/25 19:13:36;;;;;;;34.33;17.02;;;;;;;2.25;76.89;98649.44;10580870;27;20055;-77
2023/01/25 19:18:57;;;;;;;31.55;15.65;;;;;;;2.23;77.82;98638.19;10573582;27;20118;-76
2023/01/25 19:24:19;;;;;;;31.98;16.48;;;;;;;2.23;77.72;98629.19;10596070;27;20095;-77
2023/01/25 19:29:41;;;;;;;31.50;16.67;;;;;;;2.07;77.40;98625.34;10595814;27;20095;-77
2023/01/25 19:35:02;;;;;;;31.48;15.73;;;;;;;2.16;77.45;98616.00;10595366;27;20047;-77
2023/01/25 19:40:23;;;;;;;27.50;14.57;;;;;;;2.22;77.35;98622.94;10595804;27;20051;-77
2023/01/25 19:45:45;;;;;;;29.67;16.30;;;;;;;2.29;77.73;98621.59;10609745;27;20443;-77
2023/01/25 19:51:10;;;;;;;30.95;17.45;;;;;;;2.29;77.49;98621.59;10581431;27;20052;-77
2023/01/25 19:56:39;;;;;;;31.45;17.90;;;;;;;2.27;78.07;98629.63;10581196;27;20050;-77
2023/01/25 20:02:00;;;;;;;33.13;17.13;;;;;;;2.25;77.79;98621.16;10595211;27;20039;-77
2023/01/25 20:07:21;;;;;;;36.80;19.50;;;;;;;2.07;77.79;98638.38;10609063;27;20119;-77
2023/01/25 20:12:43;;;;;;;36.60;19.13;;;;;;;1.98;77.80;98622.91;10579526;27;20256;-77
2023/01/25 20:18:04;;;;;;;31.95;17.52;;;;;;;1.95;78.13;98605.44;10540309;28;20069;-76
2023/01/25 20:23:27;;;;;;;30.80;15.85;;;;;;;1.99;78.26;98600.38;10570691;28;20039;-75
2023/01/25 20:28:54;;;;;;;37.08;17.25;;;;;;;2.01;78.68;98597.84;10580812;28;20407;-76
2023/01/25 20:34:20;;;;;;;35.55;18.05;;;;;;;2.03;78.13;98580.06;10593794;28;20047;-76
2023/01/25 20:39:41;;;;;;;33.72;17.73;;;;;;;1.94;78.32;98587.41;10582714;28;20043;-76
2023/01/25 20:45:01;;;;;;;32.08;17.88;;;;;;;1.94;78.51;98570.91;10578344;28;20100;-76
2023/01/25 20:50:22;;;;;;;36.33;18.52;;;;;;;2.01;78.35;98572.31;10585975;27;20476;-76
2023/01/25 20:55:43;;;;;;;37.13;19.27;;;;;;;1.85;78.56;98582.25;10587470;27;20484;-76
2023/01/25 21:01:15;;;;;;;28.90;16.05;;;;;;;1.82;78.74;98569.50;10587156;27;20145;-77
2023/01/25 21:06:37;;;;;;;32.17;17.42;;;;;;;1.79;78.97;98567.78;10586966;27;20050;-76
2023/01/25 21:11:59;;;;;;;28.95;16.13;;;;;;;1.78;78.42;98563.53;10601627;27;20050;-75
2023/01/25 21:17:20;;;;;;;31.65;15.70;;;;;;;1.87;78.89;98560.44;10586995;27;20039;-76
2023/01/25 21:22:42;;;;;;;28.77;16.30;;;;;;;1.98;78.50;98554.81;10587156;27;20051;-76
2023/01/25 21:28:03;;;;;;;27.13;14.45;;;;;;;2.05;78.76;98550.00;10586672;27;20042;-76
2023/01/25 21:33:24;;;;;;;27.95;14.95;;;;;;;2.00;78.64;98549.53;10586242;27;20074;-76
2023/01/25 21:38:46;;;;;;;29.70;14.80;;;;;;;2.04;78.80;98543.75;10572028;27;20035;-76
2023/01/25 21:55:27;;;;;;;26.05;11.98;;;;;;;2.05;78.61;98523.22;10602592;27;20420;-76
2023/01/25 22:00:48;;;;;;;23.08;12.13;;;;;;;1.98;77.88;98513.50;10582270;28;20040;-76
2023/01/25 22:06:09;;;;;;;22.25;11.93;;;;;;;1.96;78.34;98509.78;10543102;28;20047;-76
2023/01/25 22:11:30;;;;;;;26.65;13.88;;;;;;;1.80;78.17;98505.94;10571159;28;20040;-76
2023/01/25 22:16:51;;;;;;;26.13;12.57;;;;;;;1.71;78.19;98498.03;10570867;28;20485;-76
2023/01/25 22:22:12;;;;;;;25.83;14.10;;;;;;;1.73;78.26;98495.50;10596556;27;20052;-76
2023/01/25 22:27:50;;;;;;;27.35;15.15;;;;;;;1.67;78.04;98476.31;10613130;27;20046;-76
2023/01/25 22:33:11;;;;;;;27.90;14.75;;;;;;;1.69;78.44;98471.03;10598736;27;20039;-76
2023/01/25 22:38:32;;;;;;;22.05;12.13;;;;;;;1.74;79.33;98466.75;10584194;27;20039;-76
2023/01/25 22:43:54;;;;;;;25.70;13.95;;;;;;;1.84;78.96;98439.59;10612674;27;20063;-76
2023/01/25 22:49:15;;;;;;;28.20;14.05;;;;;;;1.94;78.79;98440.75;10598035;27;20035;-75
2023/01/25 22:54:36;;;;;;;28.42;15.27;;;;;;;1.98;78.64;98432.91;10611844;27;20054;-76
2023/01/25 22:59:56;;;;;;;27.30;14.90;;;;;;;1.98;78.82;98427.41;10597563;27;20043;-75
2023/01/25 23:05:17;;;;;;;27.90;15.35;;;;;;;1.98;78.15;98414.38;10596937;27;20492;-76
2023/01/25 23:10:38;;;;;;;29.33;15.13;;;;;;;1.99;78.81;98402.09;10582502;27;20047;-76
2023/01/25 23:16:00;;;;;;;26.15;14.23;;;;;;;1.95;78.69;98389.91;10596945;27;20042;-76
2023/01/25 23:21:24;;;;;;;26.52;15.10;;;;;;;1.88;78.50;98402.25;10596499;27;20047;-76
2023/01/25 23:26:45;;;;;;;29.48;15.52;;;;;;;1.95;78.46;98390.66;10596766;27;20043;-76
2023/01/25 23:32:06;;;;;;;29.92;15.43;;;;;;;2.01;78.64;98390.56;10610208;27;20043;-76
2023/01/25 23:37:27;;;;;;;27.63;15.27;;;;;;;2.04;78.72;98386.03;10567992;27;20043;-76
2023/01/25 23:42:48;;;;;;;29.70;14.57;;;;;;;2.07;78.73;98382.22;10581395;27;20047;-76
2023/01/25 23:48:08;;;;;;;32.22;16.58;;;;;;;2.08;78.53;98386.47;10581213;27;20121;-76
2023/01/25 23:53:30;;;;;;;32.40;16.45;;;;;;;2.10;78.38;98375.66;10595384;27;20096;-76
2023/01/25 23:58:51;;;;;;;31.88;16.02;;;;;;;2.13;78.22;98363.63;10581339;27;20039;-76
